Sevilla La Nueva, Spain
Current Conditions -  °F | °C
As of 5:00 PM on Wednesday 22 Oct 2014 (Local Time) from LEVS Reporting Station
Clear Clear  
Wind Chill: 26°   Ceiling: Unl
Heat Index: 26°   Visibility: 6mi
Dew Point:   Wind: 2mph
Humidity: 20%   Direction: NA
Pressure: 30.33"   Gusts: NA
Location:  40.35°N, 4.03°W
Report Text: LEVS 221500Z VRB02KT CAVOK 26/01 Q1027
Loading
Personal Weather Stations






























Interactive Weather Map
Tropical Storm Tracking
New forecast layout! Learn more

10-Day Weather Forecast

Advertisements
Track Severe Weather on mobile